createdAt,value
2023-05-10T04:21:36.095Z,71.91
2023-05-10T04:24:50.589Z,71.91
2023-05-10T04:28:04.966Z,73.87
2023-05-10T04:31:19.734Z,74.23
2023-05-10T04:34:35.396Z,74.23
2023-05-10T04:37:53.881Z,74.85
2023-05-10T04:41:08.548Z,74.80
2023-05-10T04:44:22.882Z,73.82
2023-05-10T04:47:46.964Z,74.06
2023-05-10T04:51:01.905Z,74.62
2023-05-10T04:54:41.856Z,77.31
2023-05-10T04:58:22.908Z,77.40
2023-05-10T05:01:40.317Z,76.83
2023-05-10T05:05:03.618Z,77.52
2023-05-10T05:08:20.617Z,79.02
2023-05-10T05:15:39.579Z,77.10
2023-05-10T05:19:02.873Z,77.68
2023-05-10T05:22:43.893Z,77.75
2023-05-10T05:25:58.811Z,77.24
2023-05-10T05:29:15.411Z,76.88
2023-05-10T05:32:31.675Z,76.60
2023-05-10T05:36:00.537Z,78.83
2023-05-10T05:39:18.763Z,78.37
2023-05-10T05:43:05.004Z,77.99
2023-05-10T05:47:20.108Z,77.13
2023-05-10T05:51:04.191Z,76.14
2023-05-10T05:54:30.850Z,74.83
2023-05-10T05:57:48.331Z,75.47
2023-05-10T06:01:08.241Z,75.37
2023-05-10T06:05:14.582Z,72.92
2023-05-10T06:08:45.552Z,72.14
2023-05-10T06:15:58.155Z,72.32
2023-05-10T06:19:32.440Z,70.76
2023-05-10T06:22:53.240Z,70.03
2023-05-10T06:26:13.239Z,71.88
2023-05-10T06:29:43.103Z,71.58
2023-05-10T06:33:24.099Z,69.87
2023-05-10T06:36:48.390Z,68.45
2023-05-10T06:40:17.485Z,68.59
2023-05-10T06:43:59.108Z,66.98
2023-05-10T06:48:02.895Z,67.95
2023-05-10T06:51:21.428Z,68.35
2023-05-10T06:55:12.977Z,67.31
2023-05-10T06:58:43.755Z,67.50
2023-05-10T07:02:04.147Z,67.65
2023-05-10T07:09:30.543Z,65.08
2023-05-10T07:13:07.500Z,64.96
2023-05-10T07:16:50.966Z,63.31
2023-05-10T07:20:14.553Z,63.52
2023-05-10T07:24:06.432Z,62.74
2023-05-10T07:27:25.122Z,63.41
2023-05-10T07:31:00.177Z,65.06
2023-05-10T07:34:31.008Z,64.17
2023-05-10T07:38:06.674Z,62.91
2023-05-10T07:41:28.476Z,62.31
2023-05-10T07:45:13.580Z,62.64
2023-05-10T07:48:36.278Z,63.15
2023-05-10T07:51:54.004Z,63.73
2023-05-10T07:55:19.839Z,63.74
2023-05-10T07:58:40.989Z,62.63
2023-05-10T08:02:17.866Z,62.26
2023-05-10T08:05:41.162Z,62.76
2023-05-10T08:09:03.489Z,63.69
2023-05-10T08:12:34.474Z,62.82
2023-05-10T08:15:54.815Z,62.42
2023-05-10T08:19:13.084Z,61.77
2023-05-10T08:22:29.527Z,61.66
2023-05-10T08:25:50.283Z,60.87
2023-05-10T08:29:13.409Z,60.24
2023-05-10T08:32:34.592Z,60.20
2023-05-10T08:35:54.420Z,60.58
2023-05-10T08:39:22.917Z,59.60
2023-05-10T08:42:52.722Z,58.58
2023-05-10T08:46:10.992Z,57.38
2023-05-10T08:49:36.900Z,57.03
2023-05-10T08:53:20.695Z,57.38
2023-05-10T08:56:57.076Z,56.90
2023-05-10T09:00:38.148Z,57.00
2023-05-10T09:07:50.421Z,56.64
2023-05-10T09:11:18.295Z,57.00
2023-05-10T09:14:36.967Z,57.68
2023-05-10T09:18:24.643Z,57.53
2023-05-10T09:21:57.875Z,56.53
2023-05-10T09:25:38.675Z,54.87
2023-05-10T09:28:59.255Z,53.00
2023-05-10T09:32:16.158Z,53.94
2023-05-10T09:43:51.571Z,52.86
2023-05-10T09:47:29.212Z,51.63
2023-05-10T09:50:47.483Z,50.96
2023-05-10T09:54:26.865Z,51.87
2023-05-10T09:57:59.349Z,51.97
2023-05-10T10:05:17.995Z,51.18
2023-05-10T10:08:46.143Z,49.92
2023-05-10T10:12:25.558Z,50.29
2023-05-10T10:16:10.597Z,49.54
2023-05-10T10:20:12.268Z,51.88
2023-05-10T10:24:07.586Z,49.46
2023-05-10T10:28:16.374Z,48.29
2023-05-10T10:32:03.999Z,48.07
2023-05-10T10:35:40.842Z,46.63
2023-05-10T10:39:17.418Z,47.39
2023-05-10T10:47:28.562Z,45.40
2023-05-10T10:54:50.845Z,45.84
2023-05-10T10:58:31.645Z,46.73
2023-05-10T11:02:20.746Z,44.89
2023-05-10T11:06:04.332Z,42.63
2023-05-10T11:09:40.829Z,45.48
2023-05-10T11:14:00.212Z,44.22
2023-05-10T11:17:53.799Z,44.65
2023-05-10T11:21:39.744Z,44.15
2023-05-10T11:25:21.462Z,45.43
2023-05-10T11:29:09.074Z,46.33
2023-05-10T11:32:32.835Z,47.36
2023-05-10T11:35:57.159Z,46.66
2023-05-10T11:39:35.659Z,46.84
2023-05-10T11:43:23.129Z,43.10
2023-05-10T11:47:10.993Z,43.06
2023-05-10T11:50:35.075Z,43.84
2023-05-10T11:53:58.251Z,44.74
2023-05-10T11:57:14.426Z,46.54
2023-05-10T12:00:30.051Z,45.81
2023-05-10T12:03:56.981Z,46.63
2023-05-10T12:07:49.519Z,46.24
2023-05-10T12:11:37.244Z,45.87
2023-05-10T12:14:53.452Z,45.32
2023-05-10T12:18:21.691Z,43.87
2023-05-10T12:22:00.878Z,43.56
2023-05-10T12:25:34.552Z,43.04
2023-05-10T12:28:53.578Z,43.53
2023-05-10T12:32:14.223Z,42.93
2023-05-10T12:35:29.725Z,42.34
2023-05-10T12:39:01.114Z,43.77
2023-05-10T12:46:10.836Z,43.26
2023-05-10T12:49:25.183Z,40.99
2023-05-10T12:52:43.028Z,40.67
2023-05-10T12:56:21.109Z,40.45
2023-05-10T12:59:44.020Z,40.81
2023-05-10T13:06:38.741Z,40.24
2023-05-10T13:09:54.494Z,39.88
2023-05-10T13:13:19.422Z,39.99
2023-05-10T13:17:06.242Z,40.46
2023-05-10T13:20:47.919Z,40.62
2023-05-10T13:24:51.844Z,40.61
2023-05-10T13:28:08.026Z,40.59
2023-05-10T13:31:55.921Z,39.11
2023-05-10T13:35:18.496Z,38.50
2023-05-10T13:38:44.155Z,39.56
2023-05-10T13:42:13.258Z,38.67
2023-05-10T13:45:41.760Z,38.32
2023-05-10T13:49:24.922Z,39.19
2023-05-10T13:52:42.595Z,38.18
2023-05-10T13:55:58.929Z,38.09
2023-05-10T13:59:36.500Z,37.65
2023-05-10T14:02:53.781Z,37.06
2023-05-10T14:06:22.652Z,37.98
2023-05-10T14:10:02.576Z,37.77
2023-05-10T14:13:17.016Z,39.91
2023-05-10T14:16:31.261Z,39.26
2023-05-10T14:19:45.501Z,39.25
2023-05-10T14:23:01.166Z,39.68
2023-05-10T14:26:16.189Z,39.51
2023-05-10T14:29:33.445Z,38.78
2023-05-10T14:32:49.768Z,37.86
2023-05-10T14:36:04.723Z,37.79
2023-05-10T14:39:20.207Z,37.38
2023-05-10T14:42:34.677Z,37.22
2023-05-10T14:45:48.997Z,36.45
2023-05-10T14:49:03.044Z,36.38
2023-05-10T14:52:17.718Z,35.72
2023-05-10T14:55:33.983Z,36.20
2023-05-10T14:58:48.578Z,36.73
2023-05-10T15:02:02.916Z,37.24
2023-05-10T15:05:18.007Z,36.86
2023-05-10T15:08:32.659Z,36.84
2023-05-10T15:11:48.298Z,37.73
